Time;durP1;ratioP1;P1;durP2;ratioP2;P2;SDS_P1;SDS_P2;PMS_P1;PMS_P2;Temp;Humidity;BMP_temperature;BMP_pressure;BME280_temperature;BME280_humidity;BME280_pressure;Samples;Min_cycle;Max_cycle;Signal;HPM_P1;HPM_P2
2022/03/23 00:01:07;;;;;;;0.10;0.10;;;;;;;;;;4959524;28;20042;-92
2022/03/23 00:03:34;;;;;;;0.10;0.10;;;;;;;;;;4959802;28;20096;-92
2022/03/23 00:06:01;;;;;;;0.15;0.15;;;;;;;;;;4960240;28;20502;-92
2022/03/23 00:08:27;;;;;;;0.10;0.10;;;;;;;;;;4975737;28;20125;-92
2022/03/23 00:10:53;;;;;;;0.10;0.10;;;;;;;;;;4959855;28;20078;-93
2022/03/23 00:13:19;;;;;;;0.10;0.10;;;;;;;;;;4976007;28;20069;-93
2022/03/23 00:15:45;;;;;;;0.13;0.13;;;;;;;;;;4959522;28;20047;-93
2022/03/23 00:18:11;;;;;;;0.10;0.10;;;;;;;;;;4959917;28;20054;-92
2022/03/23 00:20:38;;;;;;;0.10;0.10;;;;;;;;;;4959770;28;20077;-93
2022/03/23 00:23:04;;;;;;;0.13;0.13;;;;;;;;;;4960185;28;20061;-94
2022/03/23 00:25:30;;;;;;;0.10;0.10;;;;;;;;;;4959650;28;20590;-93
2022/03/23 00:27:57;;;;;;;0.10;0.10;;;;;;;;;;4959802;28;20078;-93
2022/03/23 00:30:23;;;;;;;0.20;0.20;;;;;;;;;;4975510;28;20145;-94
2022/03/23 00:32:50;;;;;;;0.10;0.10;;;;;;;;;;4959645;28;20050;-94
2022/03/23 00:35:16;;;;;;;0.10;0.10;;;;;;;;;;4959690;28;20097;-94
2022/03/23 00:37:43;;;;;;;0.32;0.32;;;;;;;;;;4959754;28;20046;-93
2022/03/23 00:40:09;;;;;;;0.10;0.10;;;;;;;;;;4959790;28;20054;-95
2022/03/23 00:42:35;;;;;;;0.10;0.10;;;;;;;;;;4959228;28;20439;-93
2022/03/23 00:45:03;;;;;;;0.22;0.22;;;;;;;;;;4959772;28;20490;-92
2022/03/23 00:47:29;;;;;;;0.20;0.20;;;;;;;;;;4966365;28;20035;-93
2022/03/23 00:49:55;;;;;;;0.10;0.10;;;;;;;;;;4966717;28;20047;-91
2022/03/23 00:52:21;;;;;;;0.10;0.10;;;;;;;;;;4967616;28;20057;-92
2022/03/23 00:54:47;;;;;;;0.10;0.10;;;;;;;;;;4964449;28;20042;-92
2022/03/23 00:57:13;;;;;;;0.10;0.10;;;;;;;;;;4975236;28;20129;-93
2022/03/23 00:59:39;;;;;;;0.10;0.10;;;;;;;;;;4959597;28;20054;-94
2022/03/23 01:02:05;;;;;;;0.10;0.10;;;;;;;;;;4958956;28;20042;-94
2022/03/23 01:04:31;;;;;;;0.10;0.10;;;;;;;;;;4958954;28;20097;-93
2022/03/23 01:06:58;;;;;;;0.30;0.30;;;;;;;;;;4958857;28;20039;-92
2022/03/23 01:09:25;;;;;;;0.10;0.10;;;;;;;;;;4958462;28;20100;-93
2022/03/23 01:11:51;;;;;;;0.10;0.10;;;;;;;;;;4958874;28;20482;-93
2022/03/23 01:14:17;;;;;;;0.10;0.10;;;;;;;;;;4975081;28;20046;-91
2022/03/23 01:16:43;;;;;;;0.10;0.10;;;;;;;;;;4959036;28;20066;-92
2022/03/23 01:19:09;;;;;;;0.28;0.28;;;;;;;;;;4959029;28;20046;-92
2022/03/23 01:21:36;;;;;;;0.13;0.10;;;;;;;;;;4958272;28;20042;-92
2022/03/23 01:24:02;;;;;;;0.20;0.20;;;;;;;;;;4957974;28;20043;-92
2022/03/23 01:26:28;;;;;;;0.15;0.15;;;;;;;;;;4958447;28;20039;-92
2022/03/23 01:28:54;;;;;;;0.10;0.10;;;;;;;;;;4958746;28;20124;-93
2022/03/23 01:31:21;;;;;;;0.10;0.10;;;;;;;;;;4958706;28;20051;-93
2022/03/23 01:33:47;;;;;;;0.10;0.10;;;;;;;;;;4974660;28;20405;-90
2022/03/23 01:36:13;;;;;;;0.25;0.25;;;;;;;;;;4958274;28;20125;-92
2022/03/23 01:38:39;;;;;;;0.10;0.10;;;;;;;;;;4958241;28;20054;-92
2022/03/23 01:41:04;;;;;;;0.10;0.10;;;;;;;;;;4958071;28;20051;-92
2022/03/23 01:43:33;;;;;;;0.10;0.10;;;;;;;;;;4958355;28;20053;-92
2022/03/23 01:45:59;;;;;;;0.10;0.10;;;;;;;;;;4974268;28;20047;-91
2022/03/23 01:48:25;;;;;;;0.10;0.10;;;;;;;;;;4958001;28;20133;-92
2022/03/23 01:50:51;;;;;;;0.10;0.10;;;;;;;;;;4958613;28;20085;-92
2022/03/23 01:53:17;;;;;;;1.35;0.38;;;;;;;;;;4958612;28;20045;-93
2022/03/23 01:55:43;;;;;;;0.10;0.10;;;;;;;;;;4958050;28;20042;-91
2022/03/23 01:58:10;;;;;;;0.10;0.10;;;;;;;;;;4958266;28;20053;-93
2022/03/23 02:00:36;;;;;;;0.10;0.10;;;;;;;;;;4958574;28;20443;-92
2022/03/23 02:03:03;;;;;;;0.10;0.10;;;;;;;;;;4957256;28;20078;-92
2022/03/23 02:05:29;;;;;;;0.10;0.10;;;;;;;;;;4958422;28;20047;-96
2022/03/23 02:07:58;;;;;;;0.30;0.30;;;;;;;;;;4958358;28;20049;-94
2022/03/23 02:10:24;;;;;;;0.10;0.10;;;;;;;;;;4958343;28;20042;-92
2022/03/23 02:12:50;;;;;;;0.10;0.10;;;;;;;;;;4974156;28;20035;-93
2022/03/23 02:15:17;;;;;;;0.10;0.10;;;;;;;;;;4957889;28;20126;-92
2022/03/23 02:17:44;;;;;;;0.10;0.10;;;;;;;;;;4958028;28;20466;-93
2022/03/23 02:20:10;;;;;;;0.10;0.10;;;;;;;;;;4959611;28;20043;-93
2022/03/23 02:22:36;;;;;;;0.10;0.10;;;;;;;;;;4961970;28;20043;-91
2022/03/23 02:25:03;;;;;;;0.10;0.10;;;;;;;;;;4961467;28;20058;-92
2022/03/23 02:27:29;;;;;;;0.10;0.10;;;;;;;;;;4961757;28;20102;-90
2022/03/23 02:29:55;;;;;;;0.10;0.10;;;;;;;;;;4961602;28;20101;-93
2022/03/23 02:32:21;;;;;;;0.82;0.82;;;;;;;;;;4961532;28;20051;-93
2022/03/23 02:34:47;;;;;;;0.10;0.10;;;;;;;;;;4977646;28;20553;-94
2022/03/23 02:37:13;;;;;;;0.10;0.10;;;;;;;;;;4962002;28;20034;-94
2022/03/23 02:39:39;;;;;;;0.10;0.10;;;;;;;;;;4961652;28;20118;-92
2022/03/23 02:42:05;;;;;;;0.10;0.10;;;;;;;;;;4977422;28;20051;-94
2022/03/23 02:44:32;;;;;;;0.10;0.10;;;;;;;;;;4961070;28;20130;-95
2022/03/23 02:46:58;;;;;;;0.20;0.20;;;;;;;;;;4961744;28;20114;-92
2022/03/23 02:49:24;;;;;;;0.10;0.10;;;;;;;;;;4961744;28;20550;-94
2022/03/23 02:51:50;;;;;;;0.10;0.10;;;;;;;;;;4961050;28;20038;-92
2022/03/23 03:02:39;;;;;;;0.17;0.17;;;;;;;;;;4963226;28;20383;-95
2022/03/23 03:05:07;;;;;;;0.10;0.10;;;;;;;;;;4961017;28;20508;-95
2022/03/23 03:10:19;;;;;;;0.10;0.10;;;;;;;;;;4963621;28;20046;-92
2022/03/23 03:12:46;;;;;;;0.10;0.10;;;;;;;;;;4976802;28;20039;-91
2022/03/23 03:15:12;;;;;;;0.10;0.10;;;;;;;;;;4961007;28;20066;-91
2022/03/23 03:17:38;;;;;;;0.10;0.10;;;;;;;;;;4960899;28;20042;-91
2022/03/23 03:20:04;;;;;;;0.10;0.10;;;;;;;;;;4960862;28;20482;-93
2022/03/23 03:22:34;;;;;;;0.10;0.10;;;;;;;;;;4960662;28;20610;-92
2022/03/23 03:25:00;;;;;;;0.10;0.10;;;;;;;;;;4960725;28;20074;-91
2022/03/23 03:27:26;;;;;;;0.10;0.10;;;;;;;;;;4960282;28;20097;-92
2022/03/23 03:29:52;;;;;;;0.10;0.10;;;;;;;;;;4976366;28;20058;-90
2022/03/23 03:32:18;;;;;;;0.10;0.10;;;;;;;;;;4959233;28;20043;-91
2022/03/23 03:34:44;;;;;;;0.10;0.10;;;;;;;;;;4976270;28;20045;-91
2022/03/23 03:37:10;;;;;;;0.10;0.10;;;;;;;;;;4960173;28;20043;-91
2022/03/23 03:39:36;;;;;;;0.10;0.10;;;;;;;;;;4960130;28;20039;-90
2022/03/23 03:42:02;;;;;;;0.20;0.20;;;;;;;;;;4960113;28;20066;-92
2022/03/23 03:44:28;;;;;;;0.10;0.10;;;;;;;;;;4960334;28;20043;-94
2022/03/23 03:46:54;;;;;;;0.35;0.35;;;;;;;;;;4959744;28;20042;-92
2022/03/23 03:49:20;;;;;;;0.30;0.30;;;;;;;;;;4960251;28;20126;-94
2022/03/23 03:51:46;;;;;;;0.10;0.10;;;;;;;;;;4976266;28;20133;-91
2022/03/23 03:54:12;;;;;;;0.10;0.10;;;;;;;;;;4960644;28;20034;-93
2022/03/23 03:56:38;;;;;;;1.38;0.93;;;;;;;;;;4959934;28;20046;-93
2022/03/23 03:59:04;;;;;;;0.10;0.10;;;;;;;;;;4960327;28;20073;-92
2022/03/23 04:01:30;;;;;;;0.43;0.43;;;;;;;;;;4960318;28;20046;-93
2022/03/23 04:03:56;;;;;;;0.20;0.20;;;;;;;;;;4959915;28;20133;-94
2022/03/23 04:06:22;;;;;;;0.10;0.10;;;;;;;;;;4960153;28;20050;-93
2022/03/23 04:08:48;;;;;;;0.10;0.10;;;;;;;;;;4976249;28;20066;-95
2022/03/23 04:11:14;;;;;;;0.10;0.10;;;;;;;;;;4960288;28;20042;-95
2022/03/23 04:13:40;;;;;;;0.20;0.20;;;;;;;;;;4960540;28;20066;-94
2022/03/23 04:16:06;;;;;;;0.10;0.10;;;;;;;;;;4960037;28;20134;-93
2022/03/23 04:18:32;;;;;;;0.10;0.10;;;;;;;;;;4959814;28;20129;-91
2022/03/23 04:20:58;;;;;;;0.10;0.10;;;;;;;;;;4975661;28;20102;-92
2022/03/23 04:23:24;;;;;;;0.17;0.17;;;;;;;;;;4959711;28;20411;-92
2022/03/23 04:25:50;;;;;;;0.10;0.10;;;;;;;;;;4958913;28;20039;-91
2022/03/23 04:28:17;;;;;;;0.10;0.10;;;;;;;;;;4959211;28;20376;-92
2022/03/23 04:30:43;;;;;;;0.20;0.20;;;;;;;;;;4959440;28;20062;-92
2022/03/23 04:33:09;;;;;;;0.10;0.10;;;;;;;;;;4975079;28;20078;-92
2022/03/23 04:35:35;;;;;;;0.10;0.10;;;;;;;;;;4959195;28;20054;-91
2022/03/23 04:38:01;;;;;;;0.10;0.10;;;;;;;;;;4975168;28;20050;-92
2022/03/23 04:40:27;;;;;;;0.10;0.10;;;;;;;;;;4959352;28;20043;-92
2022/03/23 04:42:53;;;;;;;0.10;0.10;;;;;;;;;;4959439;28;20046;-91
2022/03/23 04:45:19;;;;;;;0.10;0.10;;;;;;;;;;4958978;28;20038;-92
2022/03/23 04:47:45;;;;;;;0.10;0.10;;;;;;;;;;4975187;28;20072;-93
2022/03/23 04:50:12;;;;;;;0.10;0.10;;;;;;;;;;4959819;28;20078;-93
2022/03/23 04:52:38;;;;;;;0.20;0.20;;;;;;;;;;4959144;28;20045;-92
2022/03/23 04:55:05;;;;;;;0.10;0.10;;;;;;;;;;4959125;28;20058;-93
2022/03/23 04:57:31;;;;;;;0.10;0.10;;;;;;;;;;4959478;28;20419;-92
2022/03/23 05:00:00;;;;;;;0.10;0.10;;;;;;;;;;4958858;28;20046;-93
2022/03/23 05:02:26;;;;;;;0.10;0.10;;;;;;;;;;4974333;28;20217;-91
2022/03/23 05:04:52;;;;;;;0.10;0.10;;;;;;;;;;4958318;28;20046;-92
2022/03/23 05:07:18;;;;;;;0.10;0.10;;;;;;;;;;4957994;28;20046;-93
2022/03/23 05:09:44;;;;;;;0.10;0.10;;;;;;;;;;4958334;28;20129;-92
2022/03/23 05:12:10;;;;;;;0.57;0.40;;;;;;;;;;4958868;28;20074;-93
2022/03/23 05:14:36;;;;;;;0.10;0.10;;;;;;;;;;4958772;28;20096;-94
2022/03/23 05:17:02;;;;;;;0.10;0.10;;;;;;;;;;4958824;28;20390;-92
2022/03/23 05:19:28;;;;;;;0.10;0.10;;;;;;;;;;4958748;28;20031;-93
2022/03/23 05:21:54;;;;;;;0.15;0.13;;;;;;;;;;4958896;28;20039;-94
2022/03/23 05:24:20;;;;;;;0.80;0.35;;;;;;;;;;4959060;28;20050;-95
2022/03/23 05:26:46;;;;;;;0.10;0.10;;;;;;;;;;4958161;28;20471;-95
2022/03/23 05:29:12;;;;;;;0.10;0.10;;;;;;;;;;4974348;28;20121;-94
2022/03/23 05:31:39;;;;;;;0.10;0.10;;;;;;;;;;4974530;28;20049;-95
2022/03/23 05:34:08;;;;;;;0.10;0.10;;;;;;;;;;4958608;28;20089;-96
2022/03/23 05:36:34;;;;;;;0.20;0.20;;;;;;;;;;4958610;28;20034;-94
2022/03/23 05:39:00;;;;;;;0.15;0.15;;;;;;;;;;4958418;28;20105;-94
2022/03/23 05:41:26;;;;;;;0.10;0.10;;;;;;;;;;4958422;28;20090;-94
2022/03/23 05:43:52;;;;;;;0.10;0.10;;;;;;;;;;4958410;28;20046;-93
2022/03/23 05:46:18;;;;;;;0.10;0.10;;;;;;;;;;4957594;28;20050;-93
2022/03/23 05:48:44;;;;;;;0.10;0.10;;;;;;;;;;4974016;28;20046;-91
2022/03/23 05:51:10;;;;;;;0.10;0.10;;;;;;;;;;4958171;28;20511;-94
2022/03/23 05:53:36;;;;;;;0.10;0.10;;;;;;;;;;4958278;28;20553;-95
2022/03/23 05:56:06;;;;;;;0.98;0.30;;;;;;;;;;4958522;28;20042;-96
2022/03/23 05:58:32;;;;;;;0.10;0.10;;;;;;;;;;5156201;23;21141;-95
2022/03/23 06:00:58;;;;;;;0.25;0.20;;;;;;;;;;5017330;28;20077;-94
2022/03/23 06:03:24;;;;;;;0.10;0.10;;;;;;;;;;5000567;28;20373;-93
2022/03/23 06:05:50;;;;;;;0.10;0.10;;;;;;;;;;4988851;28;20163;-94
2022/03/23 06:08:16;;;;;;;0.10;0.10;;;;;;;;;;4996553;28;20042;-94
2022/03/23 06:10:42;;;;;;;0.10;0.10;;;;;;;;;;4996615;28;20045;-94
2022/03/23 06:13:08;;;;;;;0.20;0.20;;;;;;;;;;4997329;28;20042;-94
2022/03/23 06:15:35;;;;;;;0.10;0.10;;;;;;;;;;4996963;28;20547;-93
2022/03/23 06:18:01;;;;;;;0.20;0.20;;;;;;;;;;4996568;28;20132;-92
2022/03/23 06:20:27;;;;;;;0.10;0.10;;;;;;;;;;4996474;28;20042;-94
2022/03/23 06:22:53;;;;;;;0.10;0.10;;;;;;;;;;4996579;28;20481;-95
2022/03/23 06:25:19;;;;;;;0.10;0.10;;;;;;;;;;4995994;28;20125;-92
2022/03/23 06:27:45;;;;;;;0.20;0.20;;;;;;;;;;4996144;28;20069;-93
2022/03/23 06:30:11;;;;;;;0.15;0.15;;;;;;;;;;4996635;28;20045;-94
2022/03/23 06:32:37;;;;;;;0.10;0.10;;;;;;;;;;4997051;28;20034;-95
2022/03/23 06:35:03;;;;;;;0.10;0.10;;;;;;;;;;4996584;28;20411;-94
2022/03/23 06:37:30;;;;;;;0.10;0.10;;;;;;;;;;4996463;28;20073;-93
2022/03/23 06:39:57;;;;;;;0.10;0.10;;;;;;;;;;4996610;28;20042;-93
2022/03/23 06:42:23;;;;;;;0.10;0.10;;;;;;;;;;4996273;28;20464;-93
2022/03/23 06:44:49;;;;;;;0.10;0.10;;;;;;;;;;4996899;28;20060;-94
2022/03/23 06:47:15;;;;;;;0.10;0.10;;;;;;;;;;4996628;28;20038;-96
2022/03/23 06:49:41;;;;;;;0.22;0.22;;;;;;;;;;4996479;28;20078;-94
2022/03/23 06:52:07;;;;;;;0.15;0.15;;;;;;;;;;4996493;28;20044;-93
2022/03/23 06:54:33;;;;;;;0.10;0.10;;;;;;;;;;4996255;28;20033;-92
2022/03/23 06:56:59;;;;;;;0.10;0.10;;;;;;;;;;4996468;28;20386;-94
2022/03/23 06:59:26;;;;;;;0.30;0.30;;;;;;;;;;4995932;28;20061;-94
2022/03/23 07:01:51;;;;;;;0.20;0.20;;;;;;;;;;4996016;28;20489;-93
2022/03/23 07:04:17;;;;;;;0.20;0.20;;;;;;;;;;4995911;28;20038;-93
2022/03/23 07:06:43;;;;;;;0.20;0.20;;;;;;;;;;4996630;28;20406;-91
2022/03/23 07:11:54;;;;;;;0.10;0.10;;;;;;;;;;5001243;28;20464;-95
2022/03/23 07:14:20;;;;;;;1.65;0.43;;;;;;;;;;5000478;28;20415;-96
2022/03/23 07:16:46;;;;;;;0.25;0.25;;;;;;;;;;5001616;28;20071;-93
2022/03/23 07:19:13;;;;;;;0.10;0.10;;;;;;;;;;4999142;28;20531;-92
2022/03/23 07:21:39;;;;;;;0.10;0.10;;;;;;;;;;5001016;28;20088;-94
2022/03/23 07:24:13;;;;;;;0.20;0.20;;;;;;;;;;5018210;28;20046;-95
2022/03/23 07:26:39;;;;;;;0.20;0.20;;;;;;;;;;5001199;28;20091;-90
2022/03/23 07:29:05;;;;;;;0.30;0.30;;;;;;;;;;5015087;28;20046;-93
2022/03/23 07:31:31;;;;;;;0.20;0.20;;;;;;;;;;4999203;28;20485;-93
2022/03/23 07:33:57;;;;;;;0.10;0.10;;;;;;;;;;4999823;28;20042;-96
2022/03/23 07:36:24;;;;;;;1.00;0.88;;;;;;;;;;4998448;28;20042;-93
2022/03/23 07:38:50;;;;;;;0.55;0.35;;;;;;;;;;4982998;28;20037;-95
2022/03/23 07:41:16;;;;;;;0.45;0.45;;;;;;;;;;5015512;28;20048;-95
2022/03/23 07:43:42;;;;;;;0.10;0.10;;;;;;;;;;5002595;28;20034;-95
2022/03/23 07:46:08;;;;;;;0.10;0.10;;;;;;;;;;5021759;28;20097;-96
2022/03/23 07:48:35;;;;;;;0.15;0.15;;;;;;;;;;5023308;28;20521;-96
2022/03/23 07:51:00;;;;;;;0.43;0.38;;;;;;;;;;5018513;28;20065;-95
2022/03/23 07:53:26;;;;;;;0.10;0.10;;;;;;;;;;4998434;28;20486;-93
2022/03/23 07:55:53;;;;;;;0.20;0.20;;;;;;;;;;5012067;28;20049;-95
2022/03/23 07:58:19;;;;;;;0.65;0.65;;;;;;;;;;5011601;28;20054;-93
2022/03/23 08:00:45;;;;;;;0.60;0.60;;;;;;;;;;5012028;28;20500;-93
2022/03/23 08:03:12;;;;;;;1.08;0.30;;;;;;;;;;4996755;28;20125;-95
2022/03/23 08:05:38;;;;;;;0.20;0.20;;;;;;;;;;5017004;28;20422;-90
2022/03/23 08:08:05;;;;;;;0.80;0.80;;;;;;;;;;4994961;28;20057;-92
2022/03/23 08:10:33;;;;;;;0.50;0.50;;;;;;;;;;4995879;28;20376;-89
2022/03/23 08:12:59;;;;;;;0.30;0.30;;;;;;;;;;4994908;28;20134;-91
2022/03/23 08:15:28;;;;;;;0.63;0.63;;;;;;;;;;4995304;28;20089;-92
2022/03/23 08:17:55;;;;;;;1.08;0.38;;;;;;;;;;4995050;28;20046;-93
2022/03/23 08:20:32;;;;;;;0.32;0.32;;;;;;;;;;4994895;28;20054;-93
2022/03/23 08:22:59;;;;;;;0.30;0.30;;;;;;;;;;5027234;28;20093;-93
2022/03/23 08:25:25;;;;;;;0.60;0.60;;;;;;;;;;5010864;28;20048;-93
2022/03/23 08:27:51;;;;;;;0.50;0.50;;;;;;;;;;5027796;28;20398;-91
2022/03/23 08:30:17;;;;;;;0.25;0.20;;;;;;;;;;4994661;28;20069;-92
2022/03/23 08:32:43;;;;;;;0.15;0.15;;;;;;;;;;4994992;28;20046;-92
2022/03/23 08:35:10;;;;;;;0.40;0.40;;;;;;;;;;4994403;28;20038;-90
2022/03/23 08:37:37;;;;;;;0.20;0.20;;;;;;;;;;5009966;28;20046;-89
2022/03/23 08:40:04;;;;;;;0.70;0.70;;;;;;;;;;4994456;28;20065;-91
2022/03/23 08:42:30;;;;;;;0.30;0.30;;;;;;;;;;5011111;28;20513;-91
2022/03/23 08:44:56;;;;;;;0.55;0.55;;;;;;;;;;5010731;28;20038;-91
2022/03/23 08:47:22;;;;;;;0.20;0.20;;;;;;;;;;4994396;28;20078;-91
2022/03/23 08:49:48;;;;;;;0.20;0.20;;;;;;;;;;5027385;28;20050;-92
2022/03/23 08:52:14;;;;;;;0.10;0.10;;;;;;;;;;4994235;28;20080;-91
2022/03/23 08:54:40;;;;;;;0.20;0.20;;;;;;;;;;4994362;28;20042;-91
2022/03/23 08:57:06;;;;;;;0.40;0.40;;;;;;;;;;4993736;28;20035;-91
2022/03/23 08:59:32;;;;;;;0.22;0.22;;;;;;;;;;5026547;28;20157;-89
2022/03/23 09:01:58;;;;;;;0.30;0.30;;;;;;;;;;5027174;28;20049;-91
2022/03/23 09:04:24;;;;;;;0.25;0.25;;;;;;;;;;5010702;28;20129;-91
2022/03/23 09:06:50;;;;;;;0.47;0.47;;;;;;;;;;5026669;28;20038;-90
2022/03/23 09:09:16;;;;;;;0.40;0.40;;;;;;;;;;4994024;28;20379;-91
2022/03/23 09:11:43;;;;;;;0.20;0.20;;;;;;;;;;4993678;28;20042;-91
2022/03/23 09:14:10;;;;;;;0.45;0.20;;;;;;;;;;4993709;28;20042;-90
2022/03/23 09:16:36;;;;;;;0.50;0.50;;;;;;;;;;5009180;28;20038;-91
2022/03/23 09:19:02;;;;;;;0.20;0.20;;;;;;;;;;5009442;28;20129;-90
2022/03/23 09:21:28;;;;;;;0.40;0.40;;;;;;;;;;5009669;28;20042;-90
2022/03/23 09:23:54;;;;;;;0.10;0.10;;;;;;;;;;5009789;28;20042;-90
2022/03/23 09:26:20;;;;;;;0.30;0.30;;;;;;;;;;5009576;28;20042;-90
2022/03/23 09:28:46;;;;;;;0.30;0.30;;;;;;;;;;4993029;28;20042;-91
2022/03/23 09:31:12;;;;;;;0.13;0.13;;;;;;;;;;4992850;28;20039;-91
2022/03/23 09:33:38;;;;;;;0.20;0.20;;;;;;;;;;5009321;28;20050;-92
2022/03/23 09:36:05;;;;;;;0.20;0.20;;;;;;;;;;4993556;28;20053;-92
2022/03/23 09:38:31;;;;;;;0.35;0.35;;;;;;;;;;5009890;28;20042;-90
2022/03/23 09:40:57;;;;;;;0.20;0.20;;;;;;;;;;4993346;28;20482;-91
2022/03/23 09:43:23;;;;;;;0.30;0.30;;;;;;;;;;5009531;28;20046;-90
2022/03/23 09:45:51;;;;;;;0.35;0.35;;;;;;;;;;4993336;28;20414;-92
2022/03/23 09:48:21;;;;;;;0.43;0.43;;;;;;;;;;5009140;28;20046;-90
2022/03/23 09:50:49;;;;;;;0.20;0.20;;;;;;;;;;5009411;28;20418;-90
2022/03/23 09:53:15;;;;;;;0.30;0.30;;;;;;;;;;5009587;28;20151;-91
2022/03/23 09:55:42;;;;;;;0.52;0.32;;;;;;;;;;5009035;28;20554;-91
2022/03/23 09:58:08;;;;;;;2.28;0.60;;;;;;;;;;4992723;28;20050;-90
2022/03/23 10:00:41;;;;;;;0.10;0.10;;;;;;;;;;4992111;28;20062;-91
2022/03/23 10:03:07;;;;;;;0.55;0.55;;;;;;;;;;4992324;28;20042;-92
2022/03/23 10:05:52;;;;;;;0.38;0.38;;;;;;;;;;5025665;28;20129;-90
2022/03/23 10:08:31;;;;;;;0.47;0.32;;;;;;;;;;4993344;28;20038;-90
2022/03/23 10:11:15;;;;;;;0.28;0.28;;;;;;;;;;4992306;28;20367;-91
2022/03/23 10:13:57;;;;;;;0.30;0.30;;;;;;;;;;4992693;28;20038;-89
2022/03/23 10:16:41;;;;;;;0.70;0.40;;;;;;;;;;4992871;28;20106;-91
2022/03/23 10:19:07;;;;;;;0.35;0.35;;;;;;;;;;4992773;28;20050;-90
2022/03/23 10:21:34;;;;;;;0.25;0.25;;;;;;;;;;4992605;28;20046;-91
2022/03/23 10:24:00;;;;;;;0.30;0.30;;;;;;;;;;5008667;28;20046;-91
2022/03/23 10:26:27;;;;;;;0.40;0.40;;;;;;;;;;4992673;28;20042;-90
2022/03/23 10:28:53;;;;;;;0.22;0.22;;;;;;;;;;5008986;28;20047;-91
2022/03/23 10:31:19;;;;;;;0.20;0.20;;;;;;;;;;5008633;28;20042;-90
2022/03/23 10:33:56;;;;;;;0.30;0.30;;;;;;;;;;5009584;28;20093;-91
2022/03/23 10:36:23;;;;;;;0.20;0.20;;;;;;;;;;4992708;28;20490;-90
2022/03/23 10:38:49;;;;;;;0.20;0.20;;;;;;;;;;4992771;28;20086;-90
2022/03/23 10:41:24;;;;;;;0.20;0.20;;;;;;;;;;4994851;28;20074;-90
2022/03/23 10:43:50;;;;;;;0.10;0.10;;;;;;;;;;4996532;28;20042;-90
2022/03/23 10:46:17;;;;;;;0.22;0.22;;;;;;;;;;4995774;28;20070;-90
2022/03/23 10:48:58;;;;;;;0.10;0.10;;;;;;;;;;5012792;28;20079;-91
2022/03/23 10:51:28;;;;;;;0.90;0.87;;;;;;;;;;5012269;28;20042;-89
2022/03/23 10:53:54;;;;;;;0.20;0.20;;;;;;;;;;5012612;28;20433;-93
2022/03/23 10:56:33;;;;;;;0.32;0.32;;;;;;;;;;4996198;28;20038;-92
2022/03/23 10:59:17;;;;;;;0.20;0.20;;;;;;;;;;5012579;28;20081;-93
2022/03/23 11:01:57;;;;;;;0.10;0.10;;;;;;;;;;5029083;28;20449;-94
2022/03/23 11:04:23;;;;;;;0.20;0.20;;;;;;;;;;5029115;28;20046;-93
2022/03/23 11:06:49;;;;;;;0.10;0.10;;;;;;;;;;4996053;28;20047;-93
2022/03/23 11:17:47;;;;;;;0.20;0.20;;;;;;;;;;4996099;28;20355;-92
2022/03/23 11:20:13;;;;;;;0.20;0.20;;;;;;;;;;5012071;28;20053;-93
2022/03/23 11:22:40;;;;;;;0.30;0.30;;;;;;;;;;4995774;28;20473;-92
2022/03/23 11:25:06;;;;;;;0.20;0.20;;;;;;;;;;5011802;28;20050;-93
2022/03/23 11:27:32;;;;;;;0.22;0.22;;;;;;;;;;4995623;28;20050;-92
2022/03/23 11:29:58;;;;;;;0.65;0.65;;;;;;;;;;4995854;28;20049;-93
2022/03/23 11:32:24;;;;;;;0.30;0.30;;;;;;;;;;4995729;28;20034;-92
2022/03/23 11:34:50;;;;;;;0.20;0.20;;;;;;;;;;4995707;28;20406;-93
2022/03/23 11:37:16;;;;;;;0.10;0.10;;;;;;;;;;4995552;28;20042;-93
2022/03/23 11:39:43;;;;;;;0.30;0.30;;;;;;;;;;4995631;28;20039;-93
2022/03/23 11:42:09;;;;;;;0.40;0.40;;;;;;;;;;4995636;28;20375;-93
2022/03/23 11:44:38;;;;;;;0.50;0.50;;;;;;;;;;4995528;28;20122;-93
2022/03/23 11:47:25;;;;;;;0.43;0.32;;;;;;;;;;5011099;28;20485;-92
2022/03/23 11:49:54;;;;;;;0.17;0.17;;;;;;;;;;5011635;28;20445;-93
2022/03/23 11:52:24;;;;;;;0.20;0.20;;;;;;;;;;4994673;28;20128;-92
2022/03/23 11:57:56;;;;;;;0.38;0.38;;;;;;;;;;4994736;28;20047;-93
2022/03/23 12:00:24;;;;;;;0.20;0.20;;;;;;;;;;4995265;28;20058;-93
2022/03/23 12:02:50;;;;;;;0.20;0.20;;;;;;;;;;4995153;28;20058;-93
2022/03/23 12:05:23;;;;;;;0.30;0.30;;;;;;;;;;4994847;28;20046;-92
2022/03/23 12:07:49;;;;;;;0.10;0.10;;;;;;;;;;4994312;28;20043;-93
2022/03/23 12:10:34;;;;;;;0.10;0.10;;;;;;;;;;4994165;28;20042;-92
2022/03/23 12:13:13;;;;;;;0.20;0.20;;;;;;;;;;4994156;28;20123;-91
2022/03/23 12:15:54;;;;;;;0.85;0.85;;;;;;;;;;5011193;28;20046;-91
2022/03/23 12:18:37;;;;;;;1.77;1.65;;;;;;;;;;4994795;28;20548;-91
2022/03/23 12:21:03;;;;;;;0.20;0.20;;;;;;;;;;4994779;28;20050;-93
2022/03/23 12:23:53;;;;;;;0.20;0.20;;;;;;;;;;5011098;28;20038;-93
2022/03/23 12:26:21;;;;;;;0.20;0.20;;;;;;;;;;5011088;28;20065;-91
2022/03/23 12:28:54;;;;;;;0.10;0.10;;;;;;;;;;5011089;28;20383;-92
2022/03/23 12:31:20;;;;;;;3.75;0.85;;;;;;;;;;5011194;28;20050;-92
2022/03/23 12:34:07;;;;;;;0.10;0.10;;;;;;;;;;4994222;28;20552;-92
2022/03/23 12:39:23;;;;;;;0.40;0.40;;;;;;;;;;4994357;28;20046;-93
2022/03/23 12:41:50;;;;;;;0.20;0.20;;;;;;;;;;4994444;28;20073;-91
2022/03/23 12:44:16;;;;;;;0.10;0.10;;;;;;;;;;5010340;28;20478;-92
2022/03/23 12:46:45;;;;;;;0.22;0.22;;;;;;;;;;5010025;28;20038;-91
2022/03/23 12:57:51;;;;;;;0.10;0.10;;;;;;;;;;4994051;28;20046;-93
2022/03/23 13:00:26;;;;;;;0.40;0.40;;;;;;;;;;5010012;28;20460;-93
2022/03/23 13:03:18;;;;;;;0.10;0.10;;;;;;;;;;4993449;28;20518;-93
2022/03/23 13:06:00;;;;;;;0.10;0.10;;;;;;;;;;4990500;28;20050;-93
2022/03/23 13:08:38;;;;;;;0.38;0.38;;;;;;;;;;4993900;28;20057;-92
2022/03/23 13:11:05;;;;;;;0.20;0.20;;;;;;;;;;5026900;28;20049;-93
2022/03/23 13:13:32;;;;;;;0.20;0.20;;;;;;;;;;4993682;28;20042;-93
2022/03/23 13:15:59;;;;;;;0.13;0.13;;;;;;;;;;4994013;28;20046;-92
2022/03/23 13:18:28;;;;;;;0.10;0.10;;;;;;;;;;4993842;28;20083;-92
2022/03/23 13:20:57;;;;;;;2.75;0.52;;;;;;;;;;5010278;28;20464;-92
2022/03/23 13:23:23;;;;;;;0.13;0.13;;;;;;;;;;5010138;28;20046;-93
2022/03/23 13:26:04;;;;;;;0.20;0.20;;;;;;;;;;5009991;28;20046;-93
2022/03/23 13:28:34;;;;;;;0.10;0.10;;;;;;;;;;5009690;28;20047;-93
2022/03/23 13:31:00;;;;;;;0.10;0.10;;;;;;;;;;4994477;28;20042;-93
2022/03/23 13:33:27;;;;;;;0.10;0.10;;;;;;;;;;4992786;28;20045;-93
2022/03/23 13:35:54;;;;;;;0.20;0.20;;;;;;;;;;4993393;28;20502;-92
2022/03/23 13:38:20;;;;;;;0.30;0.30;;;;;;;;;;5009996;28;20169;-92
2022/03/23 13:43:32;;;;;;;0.10;0.10;;;;;;;;;;4993511;28;20093;-93
2022/03/23 13:45:59;;;;;;;0.20;0.20;;;;;;;;;;5009745;28;20056;-93
2022/03/23 13:48:31;;;;;;;0.10;0.10;;;;;;;;;;5009445;28;20046;-92
2022/03/23 13:50:57;;;;;;;0.10;0.10;;;;;;;;;;4993768;28;20437;-93
2022/03/23 13:53:23;;;;;;;0.20;0.20;;;;;;;;;;4993368;28;20101;-93
2022/03/23 13:55:53;;;;;;;0.15;0.15;;;;;;;;;;4994832;28;20038;-93
2022/03/23 13:58:19;;;;;;;0.20;0.20;;;;;;;;;;5000029;28;20042;-93
2022/03/23 14:00:48;;;;;;;0.30;0.30;;;;;;;;;;5009709;28;20058;-93
2022/03/23 14:03:18;;;;;;;0.30;0.30;;;;;;;;;;5009656;28;20082;-92
2022/03/23 14:06:02;;;;;;;0.30;0.30;;;;;;;;;;5008913;28;20053;-93
2022/03/23 14:08:30;;;;;;;0.10;0.10;;;;;;;;;;4992656;28;20529;-93
2022/03/23 14:10:56;;;;;;;0.20;0.20;;;;;;;;;;5009434;28;20043;-93
2022/03/23 14:13:22;;;;;;;0.10;0.10;;;;;;;;;;5009608;28;20049;-92
2022/03/23 14:15:52;;;;;;;1.65;0.60;;;;;;;;;;5010853;28;20078;-92
2022/03/23 14:18:21;;;;;;;0.20;0.20;;;;;;;;;;4997075;28;20104;-93
2022/03/23 14:20:53;;;;;;;0.10;0.10;;;;;;;;;;5013448;28;20049;-93
2022/03/23 14:23:23;;;;;;;0.52;0.32;;;;;;;;;;5013315;28;20092;-93
2022/03/23 14:25:50;;;;;;;0.20;0.20;;;;;;;;;;5012910;28;20085;-93
2022/03/23 14:28:22;;;;;;;0.13;0.13;;;;;;;;;;5013831;28;20066;-93
2022/03/23 14:30:49;;;;;;;0.10;0.10;;;;;;;;;;4996938;28;20038;-92
2022/03/23 14:33:22;;;;;;;0.10;0.10;;;;;;;;;;4997058;28;20047;-93
2022/03/23 14:35:48;;;;;;;0.13;0.13;;;;;;;;;;5014547;28;20048;-92
2022/03/23 14:38:15;;;;;;;0.28;0.28;;;;;;;;;;4999622;28;20042;-92
2022/03/23 14:40:47;;;;;;;0.10;0.10;;;;;;;;;;5015198;28;20042;-92
2022/03/23 14:43:27;;;;;;;0.20;0.20;;;;;;;;;;4999126;28;20050;-92
2022/03/23 14:45:53;;;;;;;0.10;0.10;;;;;;;;;;4999079;28;20046;-92
2022/03/23 14:48:22;;;;;;;0.15;0.15;;;;;;;;;;4998936;28;20402;-92
2022/03/23 14:50:48;;;;;;;0.20;0.20;;;;;;;;;;5030765;28;20038;-92
2022/03/23 14:53:15;;;;;;;0.10;0.10;;;;;;;;;;5012455;28;20038;-92
2022/03/23 14:55:41;;;;;;;0.43;0.43;;;;;;;;;;4996500;28;20034;-94
2022/03/23 14:58:07;;;;;;;0.22;0.22;;;;;;;;;;4996569;28;20069;-93
2022/03/23 15:00:34;;;;;;;0.22;0.22;;;;;;;;;;4996368;28;20086;-92
2022/03/23 15:03:00;;;;;;;0.45;0.30;;;;;;;;;;5029719;28;20057;-93
2022/03/23 15:13:40;;;;;;;0.10;0.10;;;;;;;;;;4996207;28;20092;-92
2022/03/23 15:16:06;;;;;;;0.10;0.10;;;;;;;;;;5012534;28;20474;-92
2022/03/23 15:18:32;;;;;;;0.10;0.10;;;;;;;;;;5028812;28;20038;-92
2022/03/23 15:20:58;;;;;;;0.10;0.10;;;;;;;;;;4996167;28;20043;-93
2022/03/23 15:23:24;;;;;;;0.10;0.10;;;;;;;;;;4995946;28;20046;-93
2022/03/23 15:25:50;;;;;;;0.20;0.20;;;;;;;;;;5028331;28;20054;-92
2022/03/23 15:28:16;;;;;;;1.25;0.75;;;;;;;;;;4994058;28;20150;-91
2022/03/23 15:30:42;;;;;;;0.10;0.10;;;;;;;;;;5028808;28;20038;-93
2022/03/23 15:33:14;;;;;;;0.43;0.20;;;;;;;;;;4995962;28;20042;-93